sensor_id;sensor_type;location;lat;lon;timestamp;P1;durP1;ratioP1;P2;durP2;ratioP2
7166;SDS011;3625;51.762;14.320;2023-06-10T00:00:15;9.27;;;6.78;;
7166;SDS011;3625;51.762;14.320;2023-06-10T00:02:44;7.43;;;6.32;;
7166;SDS011;3625;51.762;14.320;2023-06-10T00:05:12;9.27;;;6.75;;
7166;SDS011;3625;51.762;14.320;2023-06-10T00:07:42;11.15;;;7.25;;
7166;SDS011;3625;51.762;14.320;2023-06-10T00:10:12;10.13;;;6.90;;
7166;SDS011;3625;51.762;14.320;2023-06-10T00:12:41;8.27;;;6.20;;
7166;SDS011;3625;51.762;14.320;2023-06-10T00:15:10;7.63;;;6.45;;
7166;SDS011;3625;51.762;14.320;2023-06-10T00:17:40;7.10;;;5.90;;
7166;SDS011;3625;51.762;14.320;2023-06-10T00:20:10;10.88;;;6.50;;
7166;SDS011;3625;51.762;14.320;2023-06-10T00:22:39;7.78;;;6.63;;
7166;SDS011;3625;51.762;14.320;2023-06-10T00:25:12;8.93;;;6.65;;
7166;SDS011;3625;51.762;14.320;2023-06-10T00:27:41;8.70;;;6.47;;
7166;SDS011;3625;51.762;14.320;2023-06-10T00:30:10;6.78;;;6.15;;
7166;SDS011;3625;51.762;14.320;2023-06-10T00:32:40;7.43;;;6.30;;
7166;SDS011;3625;51.762;14.320;2023-06-10T00:35:09;7.57;;;6.45;;
7166;SDS011;3625;51.762;14.320;2023-06-10T00:37:38;8.48;;;6.78;;
7166;SDS011;3625;51.762;14.320;2023-06-10T00:40:08;7.07;;;6.15;;
7166;SDS011;3625;51.762;14.320;2023-06-10T00:42:38;8.77;;;5.97;;
7166;SDS011;3625;51.762;14.320;2023-06-10T00:45:06;8.02;;;6.13;;
7166;SDS011;3625;51.762;14.320;2023-06-10T00:47:36;8.07;;;7.28;;
7166;SDS011;3625;51.762;14.320;2023-06-10T00:50:06;9.98;;;7.18;;
7166;SDS011;3625;51.762;14.320;2023-06-10T00:52:35;7.97;;;5.88;;
7166;SDS011;3625;51.762;14.320;2023-06-10T00:55:05;7.82;;;6.50;;
7166;SDS011;3625;51.762;14.320;2023-06-10T00:57:36;7.22;;;6.53;;
7166;SDS011;3625;51.762;14.320;2023-06-10T01:00:06;7.50;;;6.13;;
7166;SDS011;3625;51.762;14.320;2023-06-10T01:02:36;7.30;;;6.57;;
7166;SDS011;3625;51.762;14.320;2023-06-10T01:05:07;9.88;;;6.93;;
7166;SDS011;3625;51.762;14.320;2023-06-10T01:07:38;8.40;;;6.22;;
7166;SDS011;3625;51.762;14.320;2023-06-10T01:10:20;8.95;;;6.65;;
7166;SDS011;3625;51.762;14.320;2023-06-10T01:13:00;7.95;;;6.90;;
7166;SDS011;3625;51.762;14.320;2023-06-10T01:15:34;7.50;;;6.18;;
7166;SDS011;3625;51.762;14.320;2023-06-10T01:18:05;8.27;;;6.78;;
7166;SDS011;3625;51.762;14.320;2023-06-10T01:20:37;9.52;;;6.13;;
7166;SDS011;3625;51.762;14.320;2023-06-10T01:23:08;9.13;;;6.95;;
7166;SDS011;3625;51.762;14.320;2023-06-10T01:25:39;10.82;;;6.88;;
7166;SDS011;3625;51.762;14.320;2023-06-10T01:28:14;7.25;;;6.43;;
7166;SDS011;3625;51.762;14.320;2023-06-10T01:30:53;10.57;;;7.30;;
7166;SDS011;3625;51.762;14.320;2023-06-10T01:33:31;12.10;;;7.00;;
7166;SDS011;3625;51.762;14.320;2023-06-10T01:36:10;11.52;;;7.75;;
7166;SDS011;3625;51.762;14.320;2023-06-10T01:38:42;8.38;;;7.57;;
7166;SDS011;3625;51.762;14.320;2023-06-10T01:41:14;10.60;;;7.85;;
7166;SDS011;3625;51.762;14.320;2023-06-10T01:43:45;9.35;;;7.38;;
7166;SDS011;3625;51.762;14.320;2023-06-10T01:46:15;8.88;;;7.20;;
7166;SDS011;3625;51.762;14.320;2023-06-10T01:48:46;8.68;;;7.45;;
7166;SDS011;3625;51.762;14.320;2023-06-10T01:51:15;10.98;;;8.00;;
7166;SDS011;3625;51.762;14.320;2023-06-10T01:53:46;8.38;;;7.57;;
7166;SDS011;3625;51.762;14.320;2023-06-10T01:56:15;9.15;;;7.90;;
7166;SDS011;3625;51.762;14.320;2023-06-10T01:58:45;9.05;;;6.93;;
7166;SDS011;3625;51.762;14.320;2023-06-10T02:01:14;8.95;;;8.02;;
7166;SDS011;3625;51.762;14.320;2023-06-10T02:03:43;7.97;;;7.13;;
7166;SDS011;3625;51.762;14.320;2023-06-10T02:06:12;8.82;;;8.00;;
7166;SDS011;3625;51.762;14.320;2023-06-10T02:08:41;10.80;;;8.18;;
7166;SDS011;3625;51.762;14.320;2023-06-10T02:11:11;8.65;;;7.65;;
7166;SDS011;3625;51.762;14.320;2023-06-10T02:13:39;8.73;;;7.82;;
7166;SDS011;3625;51.762;14.320;2023-06-10T02:16:08;9.00;;;7.65;;
7166;SDS011;3625;51.762;14.320;2023-06-10T02:18:39;9.82;;;8.48;;
7166;SDS011;3625;51.762;14.320;2023-06-10T02:21:10;9.65;;;7.63;;
7166;SDS011;3625;51.762;14.320;2023-06-10T02:23:39;10.02;;;7.78;;
7166;SDS011;3625;51.762;14.320;2023-06-10T02:26:07;8.93;;;8.05;;
7166;SDS011;3625;51.762;14.320;2023-06-10T02:28:37;9.30;;;7.45;;
7166;SDS011;3625;51.762;14.320;2023-06-10T02:31:06;10.27;;;7.75;;
7166;SDS011;3625;51.762;14.320;2023-06-10T02:33:36;10.68;;;8.40;;
7166;SDS011;3625;51.762;14.320;2023-06-10T02:36:07;9.27;;;7.60;;
7166;SDS011;3625;51.762;14.320;2023-06-10T02:38:40;9.70;;;7.75;;
7166;SDS011;3625;51.762;14.320;2023-06-10T02:41:09;8.82;;;7.70;;
7166;SDS011;3625;51.762;14.320;2023-06-10T02:43:39;8.75;;;7.88;;
7166;SDS011;3625;51.762;14.320;2023-06-10T02:46:09;8.40;;;7.30;;
7166;SDS011;3625;51.762;14.320;2023-06-10T02:48:41;9.65;;;7.75;;
7166;SDS011;3625;51.762;14.320;2023-06-10T02:51:13;10.45;;;7.82;;
7166;SDS011;3625;51.762;14.320;2023-06-10T02:53:45;10.57;;;7.72;;
7166;SDS011;3625;51.762;14.320;2023-06-10T02:56:15;8.38;;;7.47;;
7166;SDS011;3625;51.762;14.320;2023-06-10T02:58:46;8.50;;;7.68;;
7166;SDS011;3625;51.762;14.320;2023-06-10T03:01:16;10.50;;;8.07;;
7166;SDS011;3625;51.762;14.320;2023-06-10T03:03:54;10.05;;;7.47;;
7166;SDS011;3625;51.762;14.320;2023-06-10T03:06:23;7.88;;;7.07;;
7166;SDS011;3625;51.762;14.320;2023-06-10T03:09:00;8.70;;;7.80;;
7166;SDS011;3625;51.762;14.320;2023-06-10T03:11:30;8.40;;;7.63;;
7166;SDS011;3625;51.762;14.320;2023-06-10T03:14:01;8.15;;;7.35;;
7166;SDS011;3625;51.762;14.320;2023-06-10T03:16:30;9.52;;;7.65;;
7166;SDS011;3625;51.762;14.320;2023-06-10T03:19:00;8.30;;;7.55;;
7166;SDS011;3625;51.762;14.320;2023-06-10T03:21:29;14.63;;;9.05;;
7166;SDS011;3625;51.762;14.320;2023-06-10T03:23:58;10.43;;;7.97;;
7166;SDS011;3625;51.762;14.320;2023-06-10T03:26:27;9.38;;;7.68;;
7166;SDS011;3625;51.762;14.320;2023-06-10T03:28:57;10.65;;;9.00;;
7166;SDS011;3625;51.762;14.320;2023-06-10T03:31:27;9.80;;;8.80;;
7166;SDS011;3625;51.762;14.320;2023-06-10T03:33:56;11.98;;;9.23;;
7166;SDS011;3625;51.762;14.320;2023-06-10T03:36:25;10.88;;;9.38;;
7166;SDS011;3625;51.762;14.320;2023-06-10T03:38:56;11.45;;;8.15;;
7166;SDS011;3625;51.762;14.320;2023-06-10T03:41:26;9.93;;;8.95;;
7166;SDS011;3625;51.762;14.320;2023-06-10T03:43:54;10.05;;;9.05;;
7166;SDS011;3625;51.762;14.320;2023-06-10T03:46:23;8.98;;;7.85;;
7166;SDS011;3625;51.762;14.320;2023-06-10T03:48:53;11.05;;;8.93;;
7166;SDS011;3625;51.762;14.320;2023-06-10T03:51:22;9.88;;;8.38;;
7166;SDS011;3625;51.762;14.320;2023-06-10T03:53:50;9.32;;;8.43;;
7166;SDS011;3625;51.762;14.320;2023-06-10T03:56:20;10.35;;;8.95;;
7166;SDS011;3625;51.762;14.320;2023-06-10T03:58:49;10.48;;;9.43;;
7166;SDS011;3625;51.762;14.320;2023-06-10T04:01:19;11.07;;;9.85;;
7166;SDS011;3625;51.762;14.320;2023-06-10T04:03:48;9.73;;;8.73;;
7166;SDS011;3625;51.762;14.320;2023-06-10T04:06:19;10.95;;;9.20;;
7166;SDS011;3625;51.762;14.320;2023-06-10T04:08:49;12.00;;;9.52;;
7166;SDS011;3625;51.762;14.320;2023-06-10T04:11:17;9.57;;;8.68;;
7166;SDS011;3625;51.762;14.320;2023-06-10T04:13:46;10.90;;;8.93;;
7166;SDS011;3625;51.762;14.320;2023-06-10T04:16:17;10.30;;;9.25;;
7166;SDS011;3625;51.762;14.320;2023-06-10T04:18:48;10.52;;;9.07;;
7166;SDS011;3625;51.762;14.320;2023-06-10T04:21:19;11.60;;;9.63;;
7166;SDS011;3625;51.762;14.320;2023-06-10T04:23:49;11.85;;;9.68;;
7166;SDS011;3625;51.762;14.320;2023-06-10T04:26:18;11.27;;;10.13;;
7166;SDS011;3625;51.762;14.320;2023-06-10T04:28:47;11.52;;;10.35;;
7166;SDS011;3625;51.762;14.320;2023-06-10T04:31:17;10.20;;;9.13;;
7166;SDS011;3625;51.762;14.320;2023-06-10T04:33:46;14.73;;;11.10;;
7166;SDS011;3625;51.762;14.320;2023-06-10T04:36:15;12.50;;;11.05;;
7166;SDS011;3625;51.762;14.320;2023-06-10T04:38:45;15.38;;;11.88;;
7166;SDS011;3625;51.762;14.320;2023-06-10T04:41:13;11.95;;;10.23;;
7166;SDS011;3625;51.762;14.320;2023-06-10T04:43:42;11.90;;;10.70;;
7166;SDS011;3625;51.762;14.320;2023-06-10T04:46:11;10.68;;;9.57;;
7166;SDS011;3625;51.762;14.320;2023-06-10T04:48:40;10.90;;;9.77;;
7166;SDS011;3625;51.762;14.320;2023-06-10T04:51:09;14.65;;;10.65;;
7166;SDS011;3625;51.762;14.320;2023-06-10T04:53:37;14.70;;;10.75;;
7166;SDS011;3625;51.762;14.320;2023-06-10T04:56:07;14.13;;;11.30;;
7166;SDS011;3625;51.762;14.320;2023-06-10T04:58:36;16.15;;;10.25;;
7166;SDS011;3625;51.762;14.320;2023-06-10T05:01:04;12.13;;;10.95;;
7166;SDS011;3625;51.762;14.320;2023-06-10T05:03:33;11.88;;;10.65;;
7166;SDS011;3625;51.762;14.320;2023-06-10T05:06:01;14.30;;;12.25;;
7166;SDS011;3625;51.762;14.320;2023-06-10T05:08:30;12.80;;;11.45;;
7166;SDS011;3625;51.762;14.320;2023-06-10T05:10:58;15.38;;;12.27;;
7166;SDS011;3625;51.762;14.320;2023-06-10T05:13:28;12.65;;;11.43;;
7166;SDS011;3625;51.762;14.320;2023-06-10T05:15:57;11.63;;;10.43;;
7166;SDS011;3625;51.762;14.320;2023-06-10T05:18:25;12.82;;;11.52;;
7166;SDS011;3625;51.762;14.320;2023-06-10T05:20:54;10.73;;;9.65;;
7166;SDS011;3625;51.762;14.320;2023-06-10T05:23:22;11.63;;;10.52;;
7166;SDS011;3625;51.762;14.320;2023-06-10T05:25:51;13.00;;;11.70;;
7166;SDS011;3625;51.762;14.320;2023-06-10T05:28:19;11.90;;;10.73;;
7166;SDS011;3625;51.762;14.320;2023-06-10T05:30:49;11.65;;;10.65;;
7166;SDS011;3625;51.762;14.320;2023-06-10T05:33:18;12.35;;;11.05;;
7166;SDS011;3625;51.762;14.320;2023-06-10T05:35:46;12.45;;;10.88;;
7166;SDS011;3625;51.762;14.320;2023-06-10T05:38:15;12.95;;;11.38;;
7166;SDS011;3625;51.762;14.320;2023-06-10T05:40:44;12.43;;;11.20;;
7166;SDS011;3625;51.762;14.320;2023-06-10T05:43:13;12.98;;;11.77;;
7166;SDS011;3625;51.762;14.320;2023-06-10T05:45:43;11.90;;;10.82;;
7166;SDS011;3625;51.762;14.320;2023-06-10T05:48:13;12.13;;;11.02;;
7166;SDS011;3625;51.762;14.320;2023-06-10T05:50:41;10.68;;;9.60;;
7166;SDS011;3625;51.762;14.320;2023-06-10T05:53:14;11.23;;;10.13;;
7166;SDS011;3625;51.762;14.320;2023-06-10T05:55:43;14.18;;;11.98;;
7166;SDS011;3625;51.762;14.320;2023-06-10T05:58:13;13.82;;;12.18;;
7166;SDS011;3625;51.762;14.320;2023-06-10T06:00:42;13.07;;;11.77;;
7166;SDS011;3625;51.762;14.320;2023-06-10T06:03:10;13.52;;;11.27;;
7166;SDS011;3625;51.762;14.320;2023-06-10T06:05:41;10.82;;;9.93;;
7166;SDS011;3625;51.762;14.320;2023-06-10T06:08:10;12.20;;;11.10;;
7166;SDS011;3625;51.762;14.320;2023-06-10T06:10:40;15.10;;;12.15;;
7166;SDS011;3625;51.762;14.320;2023-06-10T06:13:08;11.82;;;10.65;;
7166;SDS011;3625;51.762;14.320;2023-06-10T06:15:37;11.70;;;10.65;;
7166;SDS011;3625;51.762;14.320;2023-06-10T06:18:05;13.02;;;9.77;;
7166;SDS011;3625;51.762;14.320;2023-06-10T06:20:34;10.95;;;9.95;;
7166;SDS011;3625;51.762;14.320;2023-06-10T06:23:04;11.75;;;10.65;;
7166;SDS011;3625;51.762;14.320;2023-06-10T06:25:32;11.43;;;10.30;;
7166;SDS011;3625;51.762;14.320;2023-06-10T06:28:02;11.05;;;9.95;;
7166;SDS011;3625;51.762;14.320;2023-06-10T06:30:30;11.45;;;9.80;;
7166;SDS011;3625;51.762;14.320;2023-06-10T06:32:59;12.23;;;10.80;;
7166;SDS011;3625;51.762;14.320;2023-06-10T06:35:29;10.93;;;10.02;;
7166;SDS011;3625;51.762;14.320;2023-06-10T06:38:00;11.63;;;10.45;;
7166;SDS011;3625;51.762;14.320;2023-06-10T06:40:32;14.98;;;10.65;;
7166;SDS011;3625;51.762;14.320;2023-06-10T06:43:01;12.25;;;10.95;;
7166;SDS011;3625;51.762;14.320;2023-06-10T06:45:49;13.93;;;10.73;;
7166;SDS011;3625;51.762;14.320;2023-06-10T06:48:18;11.93;;;10.57;;
7166;SDS011;3625;51.762;14.320;2023-06-10T06:50:47;11.57;;;10.57;;
7166;SDS011;3625;51.762;14.320;2023-06-10T06:53:16;10.40;;;9.45;;
7166;SDS011;3625;51.762;14.320;2023-06-10T06:55:46;12.10;;;11.07;;
7166;SDS011;3625;51.762;14.320;2023-06-10T06:58:15;10.90;;;9.75;;
7166;SDS011;3625;51.762;14.320;2023-06-10T07:00:43;11.40;;;10.15;;
7166;SDS011;3625;51.762;14.320;2023-06-10T07:03:12;12.32;;;10.05;;
7166;SDS011;3625;51.762;14.320;2023-06-10T07:05:41;10.57;;;9.57;;
7166;SDS011;3625;51.762;14.320;2023-06-10T07:08:10;11.57;;;10.15;;
7166;SDS011;3625;51.762;14.320;2023-06-10T07:10:40;11.75;;;10.55;;
7166;SDS011;3625;51.762;14.320;2023-06-10T07:13:10;10.63;;;9.52;;
7166;SDS011;3625;51.762;14.320;2023-06-10T07:15:40;10.50;;;9.50;;
7166;SDS011;3625;51.762;14.320;2023-06-10T07:18:09;10.55;;;9.55;;
7166;SDS011;3625;51.762;14.320;2023-06-10T07:20:37;13.10;;;10.48;;
7166;SDS011;3625;51.762;14.320;2023-06-10T07:23:06;12.23;;;9.75;;
7166;SDS011;3625;51.762;14.320;2023-06-10T07:25:34;9.45;;;8.55;;
7166;SDS011;3625;51.762;14.320;2023-06-10T07:28:03;13.00;;;11.70;;
7166;SDS011;3625;51.762;14.320;2023-06-10T07:30:33;11.15;;;10.07;;
7166;SDS011;3625;51.762;14.320;2023-06-10T07:33:01;11.35;;;10.25;;
7166;SDS011;3625;51.762;14.320;2023-06-10T07:35:32;10.45;;;9.38;;
7166;SDS011;3625;51.762;14.320;2023-06-10T07:38:00;11.25;;;10.15;;
7166;SDS011;3625;51.762;14.320;2023-06-10T07:40:29;11.70;;;9.88;;
7166;SDS011;3625;51.762;14.320;2023-06-10T07:43:00;12.02;;;10.13;;
7166;SDS011;3625;51.762;14.320;2023-06-10T07:45:29;10.35;;;9.30;;
7166;SDS011;3625;51.762;14.320;2023-06-10T07:47:59;10.93;;;8.68;;
7166;SDS011;3625;51.762;14.320;2023-06-10T07:50:27;10.63;;;9.63;;
7166;SDS011;3625;51.762;14.320;2023-06-10T07:52:56;9.65;;;8.85;;
7166;SDS011;3625;51.762;14.320;2023-06-10T07:55:24;9.55;;;8.57;;
7166;SDS011;3625;51.762;14.320;2023-06-10T07:57:53;9.88;;;8.88;;
7166;SDS011;3625;51.762;14.320;2023-06-10T08:00:22;10.15;;;9.10;;
7166;SDS011;3625;51.762;14.320;2023-06-10T08:02:50;10.32;;;9.32;;
7166;SDS011;3625;51.762;14.320;2023-06-10T08:05:20;10.68;;;8.90;;
7166;SDS011;3625;51.762;14.320;2023-06-10T08:07:49;9.95;;;8.95;;
7166;SDS011;3625;51.762;14.320;2023-06-10T08:10:18;11.38;;;10.18;;
7166;SDS011;3625;51.762;14.320;2023-06-10T08:12:46;12.40;;;10.85;;
7166;SDS011;3625;51.762;14.320;2023-06-10T08:15:15;10.73;;;9.70;;
7166;SDS011;3625;51.762;14.320;2023-06-10T08:17:43;10.70;;;9.80;;
7166;SDS011;3625;51.762;14.320;2023-06-10T08:20:12;9.82;;;9.00;;
7166;SDS011;3625;51.762;14.320;2023-06-10T08:22:42;10.93;;;8.93;;
7166;SDS011;3625;51.762;14.320;2023-06-10T08:25:11;9.15;;;8.35;;
7166;SDS011;3625;51.762;14.320;2023-06-10T08:27:39;10.32;;;9.43;;
7166;SDS011;3625;51.762;14.320;2023-06-10T08:30:08;10.15;;;9.25;;
7166;SDS011;3625;51.762;14.320;2023-06-10T08:32:37;10.63;;;9.48;;
7166;SDS011;3625;51.762;14.320;2023-06-10T08:35:06;11.57;;;9.43;;
7166;SDS011;3625;51.762;14.320;2023-06-10T08:37:35;10.75;;;9.65;;
7166;SDS011;3625;51.762;14.320;2023-06-10T08:40:06;9.70;;;8.90;;
7166;SDS011;3625;51.762;14.320;2023-06-10T08:42:39;9.00;;;7.80;;
7166;SDS011;3625;51.762;14.320;2023-06-10T08:45:16;7.97;;;7.22;;
7166;SDS011;3625;51.762;14.320;2023-06-10T08:47:45;8.52;;;6.72;;
7166;SDS011;3625;51.762;14.320;2023-06-10T08:50:18;8.60;;;7.28;;
7166;SDS011;3625;51.762;14.320;2023-06-10T08:52:50;9.25;;;7.78;;
7166;SDS011;3625;51.762;14.320;2023-06-10T08:55:29;7.55;;;6.90;;
7166;SDS011;3625;51.762;14.320;2023-06-10T08:58:00;7.32;;;6.63;;
7166;SDS011;3625;51.762;14.320;2023-06-10T09:00:30;7.90;;;6.55;;
7166;SDS011;3625;51.762;14.320;2023-06-10T09:03:00;7.88;;;7.05;;
7166;SDS011;3625;51.762;14.320;2023-06-10T09:05:32;8.57;;;6.68;;
7166;SDS011;3625;51.762;14.320;2023-06-10T09:08:03;6.32;;;5.82;;
7166;SDS011;3625;51.762;14.320;2023-06-10T09:10:36;7.07;;;6.20;;
7166;SDS011;3625;51.762;14.320;2023-06-10T09:13:06;7.18;;;6.47;;
7166;SDS011;3625;51.762;14.320;2023-06-10T09:15:35;6.78;;;6.15;;
7166;SDS011;3625;51.762;14.320;2023-06-10T09:18:03;7.22;;;6.53;;
7166;SDS011;3625;51.762;14.320;2023-06-10T09:20:32;8.73;;;6.57;;
7166;SDS011;3625;51.762;14.320;2023-06-10T09:23:01;7.20;;;6.50;;
7166;SDS011;3625;51.762;14.320;2023-06-10T09:25:38;8.88;;;6.65;;
7166;SDS011;3625;51.762;14.320;2023-06-10T09:28:12;8.18;;;5.75;;
7166;SDS011;3625;51.762;14.320;2023-06-10T09:30:42;6.40;;;5.80;;
7166;SDS011;3625;51.762;14.320;2023-06-10T09:33:11;9.00;;;5.63;;
7166;SDS011;3625;51.762;14.320;2023-06-10T09:35:45;5.75;;;4.85;;
7166;SDS011;3625;51.762;14.320;2023-06-10T09:38:19;6.80;;;5.40;;
7166;SDS011;3625;51.762;14.320;2023-06-10T09:40:51;7.97;;;5.70;;
7166;SDS011;3625;51.762;14.320;2023-06-10T09:43:21;6.35;;;5.72;;
7166;SDS011;3625;51.762;14.320;2023-06-10T09:45:50;5.65;;;5.20;;
7166;SDS011;3625;51.762;14.320;2023-06-10T09:48:20;7.68;;;5.57;;
7166;SDS011;3625;51.762;14.320;2023-06-10T09:50:50;6.75;;;5.68;;
7166;SDS011;3625;51.762;14.320;2023-06-10T09:53:19;6.57;;;5.88;;
7166;SDS011;3625;51.762;14.320;2023-06-10T09:55:48;8.10;;;5.70;;
7166;SDS011;3625;51.762;14.320;2023-06-10T09:58:23;5.70;;;5.13;;
7166;SDS011;3625;51.762;14.320;2023-06-10T10:01:06;7.40;;;5.28;;
7166;SDS011;3625;51.762;14.320;2023-06-10T10:03:43;6.00;;;5.25;;
7166;SDS011;3625;51.762;14.320;2023-06-10T10:06:14;6.45;;;5.55;;
7166;SDS011;3625;51.762;14.320;2023-06-10T10:08:46;6.85;;;5.60;;
7166;SDS011;3625;51.762;14.320;2023-06-10T10:11:20;5.45;;;4.93;;
7166;SDS011;3625;51.762;14.320;2023-06-10T10:13:50;7.88;;;5.90;;
7166;SDS011;3625;51.762;14.320;2023-06-10T10:16:20;6.53;;;5.30;;
7166;SDS011;3625;51.762;14.320;2023-06-10T10:19:07;7.78;;;5.15;;
7166;SDS011;3625;51.762;14.320;2023-06-10T10:21:43;10.00;;;5.82;;
7166;SDS011;3625;51.762;14.320;2023-06-10T10:24:21;8.38;;;5.45;;
7166;SDS011;3625;51.762;14.320;2023-06-10T10:26:59;5.85;;;5.00;;
7166;SDS011;3625;51.762;14.320;2023-06-10T10:29:37;4.95;;;4.50;;
7166;SDS011;3625;51.762;14.320;2023-06-10T10:32:07;7.60;;;5.35;;
7166;SDS011;3625;51.762;14.320;2023-06-10T10:34:45;7.43;;;5.20;;
7166;SDS011;3625;51.762;14.320;2023-06-10T10:37:35;6.75;;;5.20;;
7166;SDS011;3625;51.762;14.320;2023-06-10T10:40:04;6.28;;;5.38;;
7166;SDS011;3625;51.762;14.320;2023-06-10T10:42:41;8.35;;;5.03;;
7166;SDS011;3625;51.762;14.320;2023-06-10T10:45:12;5.38;;;4.88;;
7166;SDS011;3625;51.762;14.320;2023-06-10T10:47:52;5.57;;;4.93;;
7166;SDS011;3625;51.762;14.320;2023-06-10T10:50:29;5.35;;;4.80;;
7166;SDS011;3625;51.762;14.320;2023-06-10T10:53:01;7.05;;;5.10;;
7166;SDS011;3625;51.762;14.320;2023-06-10T10:55:38;6.10;;;5.00;;
7166;SDS011;3625;51.762;14.320;2023-06-10T10:58:08;5.75;;;4.75;;
7166;SDS011;3625;51.762;14.320;2023-06-10T11:00:43;9.00;;;5.13;;
7166;SDS011;3625;51.762;14.320;2023-06-10T11:03:14;5.50;;;4.97;;
7166;SDS011;3625;51.762;14.320;2023-06-10T11:05:45;6.75;;;4.57;;
7166;SDS011;3625;51.762;14.320;2023-06-10T11:11:19;5.70;;;4.45;;
7166;SDS011;3625;51.762;14.320;2023-06-10T11:14:03;8.13;;;4.97;;
7166;SDS011;3625;51.762;14.320;2023-06-10T11:16:40;5.85;;;4.97;;
7166;SDS011;3625;51.762;14.320;2023-06-10T11:19:14;6.03;;;5.13;;
7166;SDS011;3625;51.762;14.320;2023-06-10T11:22:01;7.40;;;5.00;;
7166;SDS011;3625;51.762;14.320;2023-06-10T11:24:31;5.13;;;4.63;;
7166;SDS011;3625;51.762;14.320;2023-06-10T11:27:14;6.32;;;4.80;;
7166;SDS011;3625;51.762;14.320;2023-06-10T11:32:53;5.53;;;4.85;;
7166;SDS011;3625;51.762;14.320;2023-06-10T11:35:27;5.20;;;4.70;;
7166;SDS011;3625;51.762;14.320;2023-06-10T11:37:56;7.03;;;4.75;;
7166;SDS011;3625;51.762;14.320;2023-06-10T11:40:26;6.50;;;4.80;;
7166;SDS011;3625;51.762;14.320;2023-06-10T11:42:57;5.00;;;4.60;;
7166;SDS011;3625;51.762;14.320;2023-06-10T11:45:27;6.63;;;4.25;;
7166;SDS011;3625;51.762;14.320;2023-06-10T11:47:56;3.95;;;3.55;;
7166;SDS011;3625;51.762;14.320;2023-06-10T11:50:30;5.18;;;3.63;;
7166;SDS011;3625;51.762;14.320;2023-06-10T11:52:59;4.20;;;3.80;;
7166;SDS011;3625;51.762;14.320;2023-06-10T11:55:49;5.05;;;4.15;;
7166;SDS011;3625;51.762;14.320;2023-06-10T11:58:21;5.07;;;3.83;;
7166;SDS011;3625;51.762;14.320;2023-06-10T12:00:52;4.13;;;3.80;;
7166;SDS011;3625;51.762;14.320;2023-06-10T12:03:22;4.85;;;4.18;;
7166;SDS011;3625;51.762;14.320;2023-06-10T12:05:55;3.95;;;3.65;;
7166;SDS011;3625;51.762;14.320;2023-06-10T12:08:25;5.05;;;3.92;;
7166;SDS011;3625;51.762;14.320;2023-06-10T12:10:54;5.05;;;4.20;;
7166;SDS011;3625;51.762;14.320;2023-06-10T12:13:26;5.78;;;3.92;;
7166;SDS011;3625;51.762;14.320;2023-06-10T12:16:05;9.80;;;4.95;;
7166;SDS011;3625;51.762;14.320;2023-06-10T12:18:35;7.80;;;5.30;;
7166;SDS011;3625;51.762;14.320;2023-06-10T12:21:05;7.07;;;5.07;;
7166;SDS011;3625;51.762;14.320;2023-06-10T12:24:01;6.20;;;4.80;;
7166;SDS011;3625;51.762;14.320;2023-06-10T12:26:35;5.45;;;4.50;;
7166;SDS011;3625;51.762;14.320;2023-06-10T12:29:19;5.88;;;5.35;;
7166;SDS011;3625;51.762;14.320;2023-06-10T12:31:56;5.35;;;4.80;;
7166;SDS011;3625;51.762;14.320;2023-06-10T12:34:30;5.00;;;4.57;;
7166;SDS011;3625;51.762;14.320;2023-06-10T12:37:06;7.50;;;4.57;;
7166;SDS011;3625;51.762;14.320;2023-06-10T12:39:42;5.88;;;4.97;;
7166;SDS011;3625;51.762;14.320;2023-06-10T12:42:21;6.65;;;4.97;;
7166;SDS011;3625;51.762;14.320;2023-06-10T12:44:54;7.05;;;5.20;;
7166;SDS011;3625;51.762;14.320;2023-06-10T12:47:31;8.18;;;5.63;;
7166;SDS011;3625;51.762;14.320;2023-06-10T12:50:08;6.03;;;5.43;;
7166;SDS011;3625;51.762;14.320;2023-06-10T12:52:47;6.50;;;5.25;;
7166;SDS011;3625;51.762;14.320;2023-06-10T12:55:18;7.82;;;4.82;;
7166;SDS011;3625;51.762;14.320;2023-06-10T12:57:52;5.53;;;4.90;;
7166;SDS011;3625;51.762;14.320;2023-06-10T13:00:25;5.63;;;5.07;;
7166;SDS011;3625;51.762;14.320;2023-06-10T13:03:00;5.63;;;5.07;;
7166;SDS011;3625;51.762;14.320;2023-06-10T13:05:41;7.13;;;5.40;;
7166;SDS011;3625;51.762;14.320;2023-06-10T13:08:16;5.47;;;4.90;;
7166;SDS011;3625;51.762;14.320;2023-06-10T13:10:46;5.38;;;4.82;;
7166;SDS011;3625;51.762;14.320;2023-06-10T13:13:21;5.80;;;5.03;;
7166;SDS011;3625;51.762;14.320;2023-06-10T13:15:50;5.63;;;5.13;;
7166;SDS011;3625;51.762;14.320;2023-06-10T13:18:22;6.28;;;5.13;;
7166;SDS011;3625;51.762;14.320;2023-06-10T13:20:52;5.85;;;5.25;;
7166;SDS011;3625;51.762;14.320;2023-06-10T13:23:21;6.18;;;5.57;;
7166;SDS011;3625;51.762;14.320;2023-06-10T13:25:49;5.25;;;4.75;;
7166;SDS011;3625;51.762;14.320;2023-06-10T13:28:18;6.40;;;5.65;;
7166;SDS011;3625;51.762;14.320;2023-06-10T13:30:47;6.07;;;4.90;;
7166;SDS011;3625;51.762;14.320;2023-06-10T13:33:15;6.90;;;5.72;;
7166;SDS011;3625;51.762;14.320;2023-06-10T13:35:45;6.20;;;5.05;;
7166;SDS011;3625;51.762;14.320;2023-06-10T13:38:14;6.60;;;5.18;;
7166;SDS011;3625;51.762;14.320;2023-06-10T13:40:42;8.93;;;4.43;;
7166;SDS011;3625;51.762;14.320;2023-06-10T13:43:11;5.07;;;4.10;;
7166;SDS011;3625;51.762;14.320;2023-06-10T13:45:40;5.15;;;3.85;;
7166;SDS011;3625;51.762;14.320;2023-06-10T13:48:08;3.90;;;3.42;;
7166;SDS011;3625;51.762;14.320;2023-06-10T13:50:37;7.32;;;3.22;;
7166;SDS011;3625;51.762;14.320;2023-06-10T13:53:07;4.13;;;3.10;;
7166;SDS011;3625;51.762;14.320;2023-06-10T13:55:36;3.67;;;3.03;;
7166;SDS011;3625;51.762;14.320;2023-06-10T13:58:04;3.47;;;3.05;;
7166;SDS011;3625;51.762;14.320;2023-06-10T14:00:33;4.95;;;3.33;;
7166;SDS011;3625;51.762;14.320;2023-06-10T14:03:01;4.45;;;3.72;;
7166;SDS011;3625;51.762;14.320;2023-06-10T14:05:31;3.92;;;3.50;;
7166;SDS011;3625;51.762;14.320;2023-06-10T14:07:59;7.50;;;4.38;;
7166;SDS011;3625;51.762;14.320;2023-06-10T14:10:29;7.40;;;4.07;;
7166;SDS011;3625;51.762;14.320;2023-06-10T14:12:58;5.57;;;4.15;;
7166;SDS011;3625;51.762;14.320;2023-06-10T14:15:27;4.25;;;3.92;;
7166;SDS011;3625;51.762;14.320;2023-06-10T14:17:57;4.88;;;4.20;;
7166;SDS011;3625;51.762;14.320;2023-06-10T14:20:26;5.15;;;4.65;;
7166;SDS011;3625;51.762;14.320;2023-06-10T14:22:57;5.15;;;4.10;;
7166;SDS011;3625;51.762;14.320;2023-06-10T14:25:26;6.18;;;4.35;;
7166;SDS011;3625;51.762;14.320;2023-06-10T14:27:58;6.13;;;4.60;;
7166;SDS011;3625;51.762;14.320;2023-06-10T14:30:27;4.50;;;4.10;;
7166;SDS011;3625;51.762;14.320;2023-06-10T14:32:56;5.63;;;4.43;;
7166;SDS011;3625;51.762;14.320;2023-06-10T14:35:25;5.18;;;4.45;;
7166;SDS011;3625;51.762;14.320;2023-06-10T14:37:53;5.72;;;4.88;;
7166;SDS011;3625;51.762;14.320;2023-06-10T14:40:22;5.70;;;4.50;;
7166;SDS011;3625;51.762;14.320;2023-06-10T14:42:53;5.82;;;4.65;;
7166;SDS011;3625;51.762;14.320;2023-06-10T14:45:23;6.13;;;4.90;;
7166;SDS011;3625;51.762;14.320;2023-06-10T14:47:53;5.10;;;4.60;;
7166;SDS011;3625;51.762;14.320;2023-06-10T14:50:21;6.68;;;4.60;;
7166;SDS011;3625;51.762;14.320;2023-06-10T14:52:50;5.50;;;4.72;;
7166;SDS011;3625;51.762;14.320;2023-06-10T14:55:19;6.97;;;4.45;;
7166;SDS011;3625;51.762;14.320;2023-06-10T14:57:49;5.40;;;4.47;;
7166;SDS011;3625;51.762;14.320;2023-06-10T15:00:17;9.52;;;5.05;;
7166;SDS011;3625;51.762;14.320;2023-06-10T15:02:50;5.03;;;4.43;;
7166;SDS011;3625;51.762;14.320;2023-06-10T15:05:20;4.80;;;4.40;;
7166;SDS011;3625;51.762;14.320;2023-06-10T15:07:48;4.63;;;4.18;;
7166;SDS011;3625;51.762;14.320;2023-06-10T15:10:17;4.80;;;4.40;;
7166;SDS011;3625;51.762;14.320;2023-06-10T15:12:49;6.07;;;4.38;;
7166;SDS011;3625;51.762;14.320;2023-06-10T15:15:22;6.03;;;4.57;;
7166;SDS011;3625;51.762;14.320;2023-06-10T15:17:52;5.03;;;4.38;;
7166;SDS011;3625;51.762;14.320;2023-06-10T15:20:22;5.65;;;4.55;;